Latest Coastal Weather Observations for East Sale

IDV60701

Issued at 5:35 pm EDT Saturday 25 October 2014 (issued every 10 minutes, with the page automatically refreshed every 10 minutes)

About coastal observations | Map of coastal stations | Coastal observations for VIC | Marine services | Other Formats
Station Details ID: 085072 Name: EAST SALE AIRPORT Lat: -38.12 Lon: 147.13 Height: 4.6 m
Data from the previous 72 hours. | See also: Recent months at East Sale
Date/Time
EDT
Temp

°C
Wind Pressure Rain
since 9am
mm
Weather Cloud Vis
km
Sea
Height
m
Swell
Dir
 
Speed
knots
Gust
knots
hPa Trend Height
m
Period
s
Dir
25/05:30pm 15.1 ESE 10 12 1015.7 - 0.0 - Cloudy - - - - -
25/05:00pm 15.4 SE 9 12 1015.6 - 0.0 - Cloudy - - - - -
25/04:30pm 15.7 ESE 11 14 1015.3 - 0.0 - Cloudy - - - - -
25/04:00pm 16.4 SE 11 15 1015.5 - 0.0 - Partly cloudy - - - - -
25/03:30pm 16.8 SE 10 13 - - 0.0 - Partly cloudy - - - - -
25/03:00pm 18.2 ESE 10 13 1015.3 F 0.0 Fine Cloudy 30 - - - -
25/02:30pm 18.2 E 10 12 1015.5 - 0.0 - Partly cloudy - - - - -
25/02:00pm 18.8 NE 5 7 1015.8 - 0.0 - Cloudy - - - - -
25/01:30pm 17.8 ENE 5 8 1016.0 - 0.0 - Cloudy - - - - -
25/01:00pm 18.2 N 4 6 1016.1 - 0.0 - Cloudy - - - - -
25/12:30pm 17.9 N 5 7 1016.2 - 0.0 - Cloudy - - - - -
25/12:00pm 17.6 NNE 4 5 1016.7 - 0.0 - Cloudy - - - - -
25/11:30am 17.5 ESE 3 5 1017.2 - 0.0 - Cloudy - - - - -
25/11:00am 16.8 WSW 1 4 1017.6 - 0.0 - Cloudy - - - - -
25/10:30am 16.4 W 5 8 1017.8 - 0.0 - Cloudy - - - - -
25/10:00am 16.0 WSW 5 7 1017.9 - 0.0 - Cloudy - - - - -
25/09:30am 15.7 W 5 6 1017.9 - 0.0 - Cloudy - - - - -
25/09:00am 15.5 SW 4 6 1017.6 R 0.0 Fine Cloudy 25 - - - -
25/08:30am 15.0 WSW 5 7 1017.7 - 0.0 - Cloudy - - - - -
25/08:00am 14.7 W 5 8 1017.4 - 0.0 - Cloudy - - - - -
25/07:30am 14.4 W 5 7 1017.3 - 0.0 - Cloudy - - - - -
25/07:00am 14.2 WSW 4 5 1017.1 - 0.0 - Cloudy - - - - -
25/06:30am 14.0 WSW 6 8 1016.8 - 0.0 - Cloudy - - - - -
25/06:00am 14.0 SW 7 8 1016.4 - 0.0 - Mostly cloudy - - - - -
25/05:30am 14.2 WSW 8 10 1016.0 - 0.0 - Cloudy - - - - -
25/05:00am 14.2 WSW 9 13 1015.6 - 0.0 - Cloudy - - - - -
25/04:30am 15.0 WSW 9 14 1015.4 - 0.0 - Cloudy - - - - -
25/04:13am 14.9 WSW 11 16 1015.5 - 0.0 - Cloudy - - - - -
25/04:00am 15.0 WSW 10 14 1015.2 - 0.0 - Partly cloudy - - - - -
25/03:30am 15.0 WSW 10 13 1015.2 - 0.0 - Partly cloudy - - - - -
25/03:14am 14.9 WSW 12 18 1015.2 - 0.0 - Partly cloudy - - - - -
25/03:00am 14.7 WSW 11 16 1015.0 - 0.0 - Partly cloudy - - - - -
25/02:33am 14.6 WSW 15 19 1014.7 - 0.0 - Partly cloudy - - - - -
25/02:30am 14.6 WSW 15 20 1014.7 - 0.0 - Partly cloudy - - - - -
25/02:00am 14.7 W 13 20 1014.7 - 0.0 - Partly cloudy - - - - -
25/01:35am 14.9 W 14 18 1014.8 - 0.0 - Partly cloudy - - - - -
25/01:30am 14.9 W 13 18 1014.7 - 0.0 - Partly cloudy - - - - -
25/01:00am 15.0 W 12 19 1014.7 - 0.0 - - - - - - -
25/12:30am 15.7 W 12 17 1014.5 - 0.0 - - - - - - -
25/12:00am 15.3 WNW 8 10 1014.6 - 0.0 - - - - - - -
 
Date/Time
EDT
Temp

°C
Wind Pressure Rain
since 9am
mm
Weather Cloud Vis
km
Sea
Height
m
Swell
Dir
 
Speed
knots
Gust
knots
hPa Trend Height
m
Period
s
Dir
24/11:30pm 15.9 NW 5 6 1014.5 - 0.0 - - - - - - -
24/11:00pm 16.8 WNW 3 4 1014.1 - 0.0 - Partly cloudy - - - - -
24/10:30pm 17.5 SSW 4 5 1013.6 - 0.0 - - - - - - -
24/10:00pm 17.9 S 6 10 1013.3 - 0.0 - - - - - - -
24/09:30pm 18.7 SE 6 8 1013.1 - 0.0 - - - - - - -
24/09:00pm 19.2 SSE 7 9 1012.5 - 0.0 - Mostly clear - - - - -
24/08:30pm 19.9 SSE 8 10 1011.9 - 0.0 - - - - - - -
24/08:00pm 20.8 SSE 7 9 1011.4 - 0.0 - - - - - - -
24/07:30pm 20.4 ESE 7 7 1010.8 - 0.0 - - - - - - -
24/07:00pm 22.5 E 6 7 1010.3 - 0.0 - - - - - - -
24/06:30pm 23.7 E 9 10 1009.8 - 0.0 - - - - - - -
24/06:00pm 24.4 E 10 12 1009.7 - 0.0 - - - - - - -
24/05:30pm 23.9 E 10 12 1009.6 - 0.0 - - - - - - -
24/05:00pm 24.7 E 9 10 1009.9 - 0.0 - Partly cloudy - - - - -
24/04:30pm 25.3 WNW 9 10 1009.8 - 0.0 - Partly cloudy - - - - -
24/04:00pm 28.0 N 5 8 1009.7 - 0.0 - Partly cloudy 10 - - - -
24/03:30pm 26.4 ENE 5 8 1009.6 - 0.0 - Partly cloudy 10 - - - -
24/03:00pm 25.3 ESE 5 8 1010.0 R 0.0 Fine Mostly cloudy 30 - - - -
24/02:30pm 24.8 SSW 4 6 1010.2 - 0.0 - Partly cloudy 10 - - - -
24/02:00pm 24.5 S 4 7 1010.2 - 0.0 - Partly cloudy 10 - - - -
24/01:30pm 24.0 SE 5 8 1010.3 - 0.0 - - 10 - - - -
24/01:00pm 22.8 S 5 7 1010.6 - 0.0 - - 10 - - - -
24/12:30pm 21.9 SSE 5 8 1010.9 - 0.0 - - 10 - - - -
24/12:00pm 20.4 SSE 6 8 1011.1 - 0.0 - - 10 - - - -
24/11:30am 19.5 SE 4 7 1011.5 - 0.0 - - 10 - - - -
24/11:00am 18.8 SE 4 6 1011.8 - 0.0 - Mostly clear 10 - - - -
24/10:30am 18.2 ESE 3 6 1012.4 - 0.0 - Partly cloudy 10 - - - -
24/10:00am 17.1 N 4 6 1012.8 - 0.0 - Mostly cloudy 10 - - - -
24/09:30am 16.4 NNE 4 6 1013.0 - 0.0 - Mostly cloudy 10 - - - -
24/09:00am 16.1 ENE 3 6 1013.4 F 0.0 Mist Cloudy 9 - - - -
24/08:30am 16.1 E 6 7 1013.8 - 0.0 - Mostly cloudy 6 - - - -
24/08:23am 16.0 ENE 6 8 1013.8 - 0.0 - Cloudy 10 - - - -
24/08:00am 15.7 E 5 7 1014.0 - 0.0 - Mostly cloudy 6 - - - -
24/07:53am 15.5 ENE 5 7 1014.2 - 0.0 - Cloudy 9 - - - -
24/07:29am 15.4 ENE 6 7 1014.3 - 0.0 Drizzle Cloudy 4 - - - -
24/07:14am 15.4 E 7 8 1014.4 - 0.0 Drizzle Cloudy 4 - - - -
24/07:00am 15.3 E 7 9 1014.4 - 0.0 Drizzle Cloudy 4 - - - -
24/06:55am 15.2 E 8 10 1014.4 - 0.0 - Cloudy 9 - - - -
24/06:42am 15.2 E 9 11 1014.5 - 0.0 - Cloudy 6 - - - -
24/06:30am 15.2 E 8 9 1014.7 - 0.0 - Cloudy 9 - - - -
24/06:00am 15.3 E 9 12 1014.7 - 0.0 - Cloudy 10 - - - -
24/05:30am 15.5 E 9 11 1014.7 - 0.0 - Cloudy 10 - - - -
24/05:00am 15.6 E 8 11 1015.0 - 0.0 - Cloudy 10 - - - -
24/04:30am 15.9 ENE 6 8 1015.2 - 0.0 - Partly cloudy 10 - - - -
24/04:14am 16.0 ENE 7 9 1015.3 - 0.0 - Partly cloudy 10 - - - -
24/04:00am 16.0 ENE 8 10 1015.6 - 0.0 - Partly cloudy 10 - - - -
24/03:50am 16.1 ENE 9 11 1015.5 - 0.0 - Partly cloudy 10 - - - -
24/03:30am 16.0 ENE 10 12 1015.9 - 0.0 - Partly cloudy 9 - - - -
24/03:10am 16.0 ENE 9 12 1016.2 - 0.0 - Cloudy 7 - - - -
24/03:00am 15.9 ENE 8 11 1016.4 - 0.0 - Mostly cloudy 6 - - - -
24/02:30am 15.8 E 11 14 1016.8 - 0.0 - Cloudy 5 - - - -
24/02:00am 15.9 E 13 16 1017.5 - 0.0 - Cloudy 6 - - - -
24/01:30am 15.8 E 13 17 1018.0 - 0.0 - Cloudy 4 - - - -
24/01:00am 15.8 E 15 18 1018.4 - 0.0 - Cloudy 4 - - - -
24/12:30am 15.7 E 14 18 1018.8 - 0.0 - Cloudy 3 - - - -
24/12:00am 15.8 E 11 16 1019.3 - 0.0 - Cloudy 4 - - - -
 
Date/Time
EDT
Temp

°C
Wind Pressure Rain
since 9am
mm
Weather Cloud Vis
km
Sea
Height
m
Swell
Dir
 
Speed
knots
Gust
knots
hPa Trend Height
m
Period
s
Dir
23/11:30pm 15.9 E 15 19 1019.5 - 0.0 - Cloudy 5 - - - -
23/11:00pm 15.9 E 13 17 1019.7 - 0.0 - Cloudy 6 - - - -
23/10:30pm 15.8 ESE 12 15 1019.9 - 0.0 - Cloudy 6 - - - -
23/10:00pm 15.7 ESE 12 16 1020.3 - 0.0 - Cloudy 6 - - - -
23/09:46pm 15.6 E 11 15 1020.4 - 0.0 - Cloudy 6 - - - -
23/09:30pm 15.6 E 12 16 1020.6 - 0.0 - Cloudy 7 - - - -
23/09:00pm 15.5 E 14 19 1020.7 - 0.0 - Mostly cloudy 8 - - - -
23/08:30pm 15.5 ESE 14 18 1020.7 - 0.0 - Cloudy 7 - - - -
23/08:00pm 15.6 E 14 20 1020.5 - 0.0 - Cloudy 7 - - - -
23/07:30pm 15.6 E 15 19 1020.5 - 0.0 - Cloudy 7 - - - -
23/07:00pm 15.8 E 15 20 1020.4 - 0.0 - Cloudy 9 - - - -
23/06:30pm 15.8 E 17 21 1020.2 - 0.0 - Cloudy 10 - - - -
23/06:00pm 15.9 ESE 17 21 1020.2 - 0.0 - Mostly cloudy 10 - - - -
23/05:30pm 16.0 ESE 16 21 1020.3 - 0.0 - Cloudy 10 - - - -
23/05:00pm 16.1 E 16 19 1020.1 - 0.0 - Cloudy 10 - - - -
23/04:30pm 15.9 ESE 17 22 1020.2 - 0.0 - Cloudy 9 - - - -
23/04:00pm 16.1 ESE 17 21 1020.1 - 0.0 - Cloudy 10 - - - -
23/03:30pm 16.4 ESE 17 22 1020.3 - 0.0 - Cloudy 10 - - - -
23/03:00pm 16.4 ESE 16 22 1020.6 R 0.0 Distant precip. Cloudy 9 - - - -
23/02:27pm 16.4 ESE 15 19 1020.7 - 0.0 - Cloudy 9 - - - -
23/02:07pm 16.2 ESE 16 20 1021.0 - 0.0 Drizzle Cloudy 6 - - - -
23/02:00pm 16.1 ESE 15 18 1021.0 - 0.0 Drizzle Cloudy 7 - - - -
23/01:42pm 16.4 ESE 14 18 1021.1 - 0.0 Drizzle Mostly clear 6 - - - -
23/01:28pm 16.3 ESE 15 18 1021.1 - 0.0 Drizzle Mostly clear 6 - - - -
23/01:15pm 16.2 ESE 15 19 1021.2 - 0.0 Drizzle Mostly clear 6 - - - -
23/01:00pm 16.1 ESE 14 18 1021.2 - 0.0 - Cloudy 8 - - - -
23/12:30pm 16.5 ESE 15 18 1021.2 - 0.0 Drizzle Mostly clear 8 - - - -
23/12:25pm 16.5 ESE 15 18 1021.1 - 0.0 Drizzle Mostly clear 8 - - - -
23/12:00pm 16.4 ESE 13 16 1021.5 - 0.0 - Cloudy 5 - - - -
23/11:30am 15.9 ESE 11 14 1021.6 - 0.0 Drizzle Partly cloudy 5 - - - -
23/11:00am 16.0 SE 10 14 1021.7 - 0.0 Drizzle Mostly cloudy 5 - - - -
23/10:49am 16.0 SE 9 11 1021.7 - 0.0 Drizzle Mostly cloudy 3 - - - -
23/10:46am 16.1 SE 9 13 1021.7 - 0.0 Drizzle Mostly cloudy 4 - - - -
23/10:30am 16.2 ESE 7 9 1021.6 - 0.0 Haze Partly cloudy 6 - - - -
23/10:14am 16.4 SSE 7 8 1021.6 - 0.0 Drizzle Partly cloudy 7 - - - -
23/10:00am 16.3 SE 7 9 1021.3 - 0.0 - Cloudy 10 - - - -
23/09:30am 16.4 SSE 7 9 1021.1 - 0.0 - Cloudy 10 - - - -
23/09:00am 16.3 S 7 9 1021.0 R 0.0 Fine Cloudy 15 - - - -
23/08:30am 16.2 SSW 9 12 1020.7 - 0.0 - Mostly cloudy 10 - - - -
23/08:15am 16.2 SSW 9 13 1020.6 - 0.0 - Mostly cloudy 10 - - - -
23/08:00am 16.1 SSW 10 14 1020.4 - 0.0 - Mostly clear 10 - - - -
23/07:30am 15.8 SW 8 11 1020.1 - 0.0 - Mostly clear 10 - - - -
23/07:00am 15.5 SW 9 13 1019.4 - 0.0 - Partly cloudy 10 - - - -
23/06:30am 15.3 SSW 9 13 1019.1 - 0.0 - Partly cloudy - - - - -
23/06:00am 15.9 SSW 11 15 1018.1 - 0.0 - Mostly clear - - - - -
23/05:30am 16.9 SSW 15 22 1017.5 - 0.0 - Partly cloudy - - - - -
23/05:00am 17.5 WSW 12 17 1016.7 - 0.0 - Partly cloudy - - - - -
23/04:30am 16.8 NW 11 11 1016.1 - 0.0 - Cloudy - - - - -
23/04:17am 17.4 W 15 17 1016.2 - 0.0 - Cloudy - - - - -
23/04:00am 18.0 NW 4 7 1015.0 - 0.0 - Cloudy - - - - -
23/03:30am 18.1 N 7 11 1015.7 - 0.0 - Partly cloudy - - - - -
23/03:00am 19.3 SSE 11 15 1016.7 - 0.0 - Cloudy - - - - -
23/02:30am 19.2 WSW 9 12 1017.2 - 0.0 - Cloudy - - - - -
23/02:00am 18.6 W 11 16 1017.5 - 0.0 - Partly cloudy - - - - -
23/01:30am 17.4 W 5 7 1016.8 - 0.0 - Cloudy - - - - -
23/01:00am 17.7 SSW 4 7 1016.3 - 0.0 - Cloudy - - - - -
23/12:30am 18.2 S 5 7 1016.4 - 0.0 - Cloudy - - - - -
23/12:00am 18.1 S 4 6 1016.1 - 0.0 - Mostly cloudy - - - - -
 
Date/Time
EDT
Temp

°C
Wind Pressure Rain
since 9am
mm
Weather Cloud Vis
km
Sea
Height
m
Swell
Dir
 
Speed
knots
Gust
knots
hPa Trend Height
m
Period
s
Dir
22/11:30pm 18.1 SE 3 4 1015.9 - 0.0 - Cloudy - - - - -
22/11:00pm 18.6 SSW 5 8 1016.3 - 0.0 - Cloudy - - - - -
22/10:30pm 17.3 CALM 0 3 1016.1 - 0.0 - Cloudy - - - - -
22/10:00pm 18.0 NE 6 8 1016.0 - 0.0 - Cloudy - - - - -
22/09:30pm 18.4 ESE 7 7 1016.3 - 0.0 - Cloudy - - - - -
22/09:00pm 18.1 ESE 7 7 1016.4 - 0.0 - Mostly cloudy - - - - -
22/08:30pm 17.9 ESE 5 6 1016.1 - 0.0 - Partly cloudy - - - - -
22/08:00pm 17.2 E 7 8 1015.8 - 0.0 - Partly cloudy - - - - -
22/07:30pm 19.0 E 8 11 1015.8 - 0.0 - Cloudy - - - - -
22/07:00pm 20.5 E 8 10 1015.7 - 0.0 - Partly cloudy - - - - -
22/06:30pm 22.5 E 11 13 1015.6 - 0.0 - - - - - - -
22/06:00pm 25.3 E 12 15 1015.5 - 0.0 - - - - - - -

Other Formats:

Comma delimited format used in spreadsheet applications
http://www.bom.gov.au/fwo/IDV60701/IDV60701.94907.axf

JavaScript Object Notation format (JSON) in row-major order
http://www.bom.gov.au/fwo/IDV60701/IDV60701.94907.json